Time;durP1;ratioP1;P1;durP2;ratioP2;P2;SDS_P1;SDS_P2;PMS_P1;PMS_P2;Temp;Humidity;BMP_temperature;BMP_pressure;BME280_temperature;BME280_humidity;BME280_pressure;Samples;Min_cycle;Max_cycle;Signal;HPM_P1;HPM_P2
2023/05/12 15:36:59;;;;;;;5.22;2.58;;;;;;;-145.70;100.00;63560.63;5055903;28;20071;-63
2023/05/12 15:39:27;;;;;;;5.82;2.75;;;;;;;-145.70;100.00;63560.63;5004050;28;20057;-59
2023/05/12 15:41:55;;;;;;;6.70;3.10;;;;;;;-145.70;100.00;63560.63;5052393;28;20037;-58
2023/05/12 15:44:21;;;;;;;6.07;3.72;;;;;;;-145.70;100.00;63560.63;5026109;28;20049;-64
2023/05/12 15:46:50;;;;;;;6.60;3.35;;;;;;;-145.70;100.00;63560.63;5011082;28;20033;-63
2023/05/12 15:49:29;;;;;;;6.18;3.00;;;;;;;-145.70;100.00;63560.63;5016734;28;20048;-62
2023/05/12 15:52:01;;;;;;;7.43;3.00;;;;;;;-145.70;100.00;63560.63;5023416;28;20037;-61
2023/05/12 15:54:27;;;;;;;5.80;3.40;;;;;;;-145.70;100.00;63560.63;5026618;28;20162;-63
2023/05/12 15:56:55;;;;;;;6.95;3.70;;;;;;;-145.70;100.00;63560.63;5034468;28;20115;-62
2023/05/12 15:59:29;;;;;;;7.93;3.92;;;;;;;-145.70;100.00;63560.63;5018761;28;20041;-63
2023/05/12 16:01:57;;;;;;;7.68;4.28;;;;;;;-145.70;100.00;63560.63;5043342;28;20036;-61
2023/05/12 16:04:33;;;;;;;5.97;3.35;;;;;;;-145.70;100.00;63560.63;5026253;28;20068;-60
2023/05/12 16:07:04;;;;;;;7.20;4.00;;;;;;;-145.70;100.00;63560.63;5053159;28;20036;-63
2023/05/12 16:09:32;;;;;;;8.18;4.30;;;;;;;-145.70;100.00;63560.63;5034592;28;20123;-60
2023/05/12 16:12:00;;;;;;;6.60;3.88;;;;;;;-145.70;100.00;63560.63;5052271;28;20052;-61
2023/05/12 16:14:30;;;;;;;7.05;3.88;;;;;;;-145.70;100.00;63560.63;5041327;28;20052;-60
2023/05/12 16:16:58;;;;;;;8.55;3.97;;;;;;;-145.70;100.00;63560.63;5053047;28;20104;-60
2023/05/12 16:19:26;;;;;;;8.98;4.32;;;;;;;-145.70;100.00;63560.63;5050523;28;20047;-62
2023/05/12 16:21:57;;;;;;;11.55;5.55;;;;;;;-145.70;100.00;63560.63;5025037;28;20115;-61
2023/05/12 16:24:28;;;;;;;11.13;5.03;;;;;;;-145.70;100.00;63560.63;5059576;28;20119;-61
2023/05/12 16:27:09;;;;;;;10.73;4.25;;;;;;;-145.70;100.00;63560.63;5055643;28;20593;-62
2023/05/12 16:29:36;;;;;;;7.50;4.20;;;;;;;-145.70;100.00;63560.63;5036032;28;20076;-61
2023/05/12 16:32:02;;;;;;;7.07;3.97;;;;;;;-145.70;100.00;63560.63;5024832;28;20052;-60
2023/05/12 16:34:33;;;;;;;9.00;4.30;;;;;;;-145.70;100.00;63560.63;5020850;28;20229;-60
2023/05/12 16:37:04;;;;;;;7.50;4.55;;;;;;;-145.70;100.00;63560.63;5035535;28;20276;-61
2023/05/12 16:39:47;;;;;;;7.53;4.43;;;;;;;-145.70;100.00;63560.63;5023816;28;20049;-60
2023/05/12 16:42:15;;;;;;;7.88;4.18;;;;;;;-145.70;100.00;63560.63;5038536;28;20029;-60
2023/05/12 16:44:43;;;;;;;7.15;4.03;;;;;;;-145.70;100.00;63560.63;5041588;28;20040;-61
2023/05/12 16:47:11;;;;;;;6.40;3.60;;;;;;;-145.70;100.00;63560.63;5052277;28;21008;-60
2023/05/12 16:49:39;;;;;;;7.20;3.75;;;;;;;-145.70;100.00;63560.63;5041515;28;20537;-62
2023/05/12 16:52:07;;;;;;;7.43;4.25;;;;;;;-145.70;100.00;63560.63;5048666;28;20114;-61
2023/05/12 16:54:36;;;;;;;7.63;4.20;;;;;;;-145.70;100.00;63560.63;5050714;28;20106;-62
2023/05/12 16:57:04;;;;;;;6.72;4.10;;;;;;;-145.70;100.00;63560.63;5031942;28;20049;-61
2023/05/12 16:59:31;;;;;;;8.18;3.90;;;;;;;-145.70;100.00;63560.63;5039583;28;20083;-60
2023/05/12 17:02:05;;;;;;;6.78;4.05;;;;;;;-145.70;100.00;63560.63;5054209;28;20047;-61
2023/05/12 17:04:31;;;;;;;7.43;4.55;;;;;;;-145.70;100.00;63560.63;5036754;28;20408;-61
2023/05/12 17:07:02;;;;;;;7.25;4.30;;;;;;;-145.70;100.00;63560.63;5038725;28;20087;-60
2023/05/12 17:09:33;;;;;;;6.68;3.85;;;;;;;-145.70;100.00;63560.63;5026996;28;20048;-63
2023/05/12 17:11:58;;;;;;;8.38;4.30;;;;;;;-145.70;100.00;63560.63;5046117;28;20040;-60
2023/05/12 17:14:29;;;;;;;10.80;4.03;;;;;;;-145.70;100.00;63560.63;5020626;28;20157;-60
2023/05/12 17:17:03;;;;;;;5.82;3.65;;;;;;;-145.70;100.00;63560.63;5037205;28;20048;-65
2023/05/12 18:57:39;;;;;;;4.72;2.00;;;;;;;-145.70;100.00;63560.63;5048477;28;20051;-61
2023/05/12 19:00:09;;;;;;;3.88;1.63;;;;;;;-145.70;100.00;63560.63;5046349;28;20048;-61
2023/05/12 19:02:51;;;;;;;4.38;1.88;;;;;;;-145.70;100.00;63560.63;5015800;28;20043;-61
2023/05/12 19:05:21;;;;;;;4.38;1.98;;;;;;;-145.70;100.00;63560.63;5016514;28;20036;-64
2023/05/12 19:07:53;;;;;;;4.82;2.42;;;;;;;-145.70;100.00;63560.63;5025091;28;20132;-62
2023/05/12 19:10:31;;;;;;;5.25;2.35;;;;;;;-145.70;100.00;63560.63;5032274;28;20056;-63
2023/05/12 19:12:58;;;;;;;6.65;2.42;;;;;;;-145.70;100.00;63560.63;5031544;28;20148;-63
2023/05/12 19:15:30;;;;;;;5.32;2.22;;;;;;;-145.70;100.00;63560.63;5029565;28;20033;-61
2023/05/12 19:17:57;;;;;;;6.45;2.85;;;;;;;-145.70;100.00;63560.63;5011954;28;20059;-62
2023/05/12 19:20:31;;;;;;;6.13;3.10;;;;;;;-145.70;100.00;63560.63;5034882;28;20047;-63
2023/05/12 19:22:58;;;;;;;6.18;2.28;;;;;;;-145.70;100.00;63560.63;5032556;28;20044;-60
2023/05/12 19:25:38;;;;;;;5.57;1.90;;;;;;;-145.70;100.00;63560.63;5032119;28;20814;-61
2023/05/12 19:28:04;;;;;;;4.45;2.13;;;;;;;-145.70;100.00;63560.63;5019481;28;20848;-61
2023/05/12 19:30:31;;;;;;;4.18;2.17;;;;;;;-145.70;100.00;63560.63;5007646;28;20037;-61
2023/05/12 19:33:00;;;;;;;4.97;2.42;;;;;;;-145.70;100.00;63560.63;5029699;28;20348;-63
2023/05/12 19:35:28;;;;;;;4.63;2.05;;;;;;;-145.70;100.00;63560.63;5025410;28;20056;-65
2023/05/12 19:37:56;;;;;;;7.88;2.55;;;;;;;-145.70;100.00;63560.63;5049912;28;20036;-62
2023/05/12 19:40:24;;;;;;;5.35;2.40;;;;;;;-145.70;100.00;63560.63;5031254;28;20076;-63
2023/05/12 19:42:55;;;;;;;5.07;2.40;;;;;;;-145.70;100.00;63560.63;5036014;28;20126;-61
2023/05/12 19:45:23;;;;;;;4.93;2.70;;;;;;;-145.70;100.00;63560.63;5049979;28;20158;-64
2023/05/12 19:47:49;;;;;;;5.60;3.28;;;;;;;-145.70;100.00;63560.63;5026220;28;20143;-62
2023/05/12 19:50:20;;;;;;;7.03;3.97;;;;;;;-145.70;100.00;63560.63;4992633;28;20091;-63
2023/05/12 19:53:15;;;;;;;6.32;4.25;;;;;;;;;;4999546;27;3540145;-62
2023/05/12 19:55:40;;;;;;;6.78;4.30;;;;;;;;;;5107237;27;94580;-60
2023/05/12 19:58:09;;;;;;;7.28;4.72;;;;;;;;;;5097796;27;20019;-62
2023/05/12 20:00:37;;;;;;;8.05;4.63;;;;;;;;;;5104954;27;20622;-62
2023/05/12 20:03:05;;;;;;;6.40;4.30;;;;;;;;;;5109442;27;20043;-59
2023/05/12 20:05:31;;;;;;;7.85;4.45;;;;;;;;;;5105798;27;20690;-63
2023/05/12 20:08:02;;;;;;;7.85;5.28;;;;;;;;;;5105008;27;20034;-62
2023/05/12 20:10:33;;;;;;;7.10;4.97;;;;;;;;;;5105830;27;20099;-61
2023/05/12 20:13:10;;;;;;;7.45;5.10;;;;;;;;;;5108052;27;20031;-62
2023/05/12 20:15:42;;;;;;;8.43;4.60;;;;;;;;;;5108538;27;20027;-62
2023/05/12 20:18:09;;;;;;;6.15;4.05;;;;;;;;;;5109391;27;20066;-59
2023/05/12 20:20:35;;;;;;;7.20;4.00;;;;;;;;;;5110221;27;20027;-59
2023/05/12 20:23:12;;;;;;;6.30;3.63;;;;;;;;;;5119960;27;20028;-59
2023/05/12 20:25:43;;;;;;;5.50;3.35;;;;;;;;;;5110950;27;20129;-60
2023/05/12 20:28:28;;;;;;;6.22;3.38;;;;;;;;;;5105554;27;21330;-59
2023/05/12 20:30:56;;;;;;;5.88;3.20;;;;;;;;;;5111782;27;20452;-59
2023/05/12 20:33:27;;;;;;;5.40;2.80;;;;;;;;;;5108285;27;20830;-62
2023/05/12 20:35:55;;;;;;;5.22;3.05;;;;;;;;;;5094807;27;20353;-58
2023/05/12 20:38:23;;;;;;;5.88;3.40;;;;;;;;;;5112712;27;20016;-59
2023/05/12 20:40:51;;;;;;;5.88;2.72;;;;;;;;;;5105883;27;20618;-59
2023/05/12 20:43:25;;;;;;;5.40;3.17;;;;;;;;;;5108025;27;20023;-61
2023/05/12 20:45:50;;;;;;;6.88;3.50;;;;;;;;;;5103171;28;20058;-61
2023/05/12 20:48:18;;;;;;;5.68;2.72;;;;;;;;;;5105186;27;20180;-60
2023/05/12 20:50:49;;;;;;;5.00;2.30;;;;;;;;;;5109331;27;20079;-61
2023/05/12 20:53:15;;;;;;;4.88;2.40;;;;;;;;;;5106733;27;20087;-61
2023/05/12 20:55:43;;;;;;;6.05;2.95;;;;;;;;;;5108850;27;20090;-60
2023/05/12 20:58:11;;;;;;;5.05;2.85;;;;;;;;;;5103904;27;20155;-61
2023/05/12 21:00:39;;;;;;;5.85;3.15;;;;;;;;;;5121233;27;20463;-64
2023/05/12 21:03:12;;;;;;;6.82;3.30;;;;;;;;;;5101603;27;20038;-61
2023/05/12 21:05:46;;;;;;;7.30;3.17;;;;;;;;;;5099768;28;20019;-60
2023/05/12 21:08:24;;;;;;;7.18;3.30;;;;;;;;;;5094594;27;20526;-61
2023/05/12 21:10:55;;;;;;;6.47;3.42;;;;;;;;;;5086551;28;20456;-62
2023/05/12 21:13:20;;;;;;;7.40;4.43;;;;;;;;;;5095134;27;20104;-60
2023/05/12 21:16:01;;;;;;;7.72;4.43;;;;;;;;;;5095544;27;20008;-61
2023/05/12 21:18:31;;;;;;;6.20;3.80;;;;;;;;;;5091255;28;20973;-63
2023/05/12 21:20:59;;;;;;;6.72;3.10;;;;;;;;;;5097110;27;20051;-61
2023/05/12 21:23:28;;;;;;;7.15;2.88;;;;;;;;;;5092941;28;20031;-59
2023/05/12 21:25:56;;;;;;;11.57;3.58;;;;;;;;;;5094192;27;20150;-61
2023/05/12 21:28:21;;;;;;;9.00;3.17;;;;;;;;;;5094894;28;20020;-62
2023/05/12 21:30:58;;;;;;;6.88;3.28;;;;;;;;;;5092997;27;20015;-63
2023/05/12 21:33:23;;;;;;;5.88;3.47;;;;;;;;;;5095737;28;20030;-60
2023/05/12 21:36:05;;;;;;;6.47;4.40;;;;;;;;;;5097248;27;20019;-60
2023/05/12 21:38:36;;;;;;;7.07;4.30;;;;;;;;;;5096706;27;20032;-62
2023/05/12 21:41:01;;;;;;;8.95;4.75;;;;;;;;;;5097258;27;20036;-62
2023/05/12 21:43:33;;;;;;;6.43;3.65;;;;;;;;;;5097113;28;20023;-59
2023/05/12 21:46:02;;;;;;;7.50;3.92;;;;;;;;;;5095910;27;20883;-59
2023/05/12 21:48:27;;;;;;;6.45;3.80;;;;;;;;;;5095764;27;20385;-62
2023/05/12 21:51:00;;;;;;;6.72;4.18;;;;;;;;;;5098217;27;20020;-64
2023/05/12 21:53:26;;;;;;;6.80;3.78;;;;;;;;;;5092043;27;20040;-63
2023/05/12 21:55:51;;;;;;;6.72;3.92;;;;;;;;;;5085202;28;20020;-61
2023/05/12 21:58:24;;;;;;;6.72;3.95;;;;;;;;;;5088084;27;20031;-62
2023/05/12 22:00:55;;;;;;;6.15;3.38;;;;;;;;;;5086006;28;20020;-61
2023/05/12 22:03:24;;;;;;;5.10;2.90;;;;;;;;;;5087491;27;20019;-62
2023/05/12 22:05:51;;;;;;;6.27;3.50;;;;;;;;;;5089619;27;20043;-62
2023/05/12 22:08:32;;;;;;;10.57;3.20;;;;;;;;;;5090474;28;20264;-62
2023/05/12 22:11:00;;;;;;;5.70;3.17;;;;;;;;;;5090004;28;20116;-65
2023/05/12 22:13:28;;;;;;;5.28;3.00;;;;;;;;;;5093349;28;20020;-63
2023/05/12 22:15:58;;;;;;;6.30;3.40;;;;;;;;;;5093372;28;20020;-62
2023/05/12 22:18:36;;;;;;;7.78;3.88;;;;;;;;;;5097192;27;20663;-59
2023/05/12 22:21:04;;;;;;;6.13;3.40;;;;;;;;;;5095227;27;20036;-64
2023/05/12 22:23:29;;;;;;;6.53;3.58;;;;;;;;;;5100423;28;20023;-61
2023/05/12 22:25:57;;;;;;;5.60;2.97;;;;;;;;;;5100796;27;20020;-62
2023/05/12 22:28:25;;;;;;;6.32;3.10;;;;;;;;;;5100557;28;20478;-59
2023/05/12 22:30:55;;;;;;;5.65;2.90;;;;;;;;;;5100929;27;20020;-62
2023/05/12 22:33:23;;;;;;;6.90;3.13;;;;;;;;;;5094603;27;20721;-60
2023/05/12 22:35:48;;;;;;;6.13;3.40;;;;;;;;;;5111115;27;20016;-62
2023/05/12 22:38:13;;;;;;;6.17;3.43;;;;;;;;;;5090916;28;20027;-61
2023/05/12 22:40:43;;;;;;;6.50;4.27;;;;;;;;;;5098562;28;20270;-63
2023/05/12 22:43:11;;;;;;;6.85;4.30;;;;;;;;;;5094223;28;20269;-62
2023/05/12 22:45:36;;;;;;;6.13;4.22;;;;;;;;;;5095216;28;20012;-62
2023/05/12 22:48:02;;;;;;;8.00;4.75;;;;;;;;;;5096297;28;20022;-60
2023/05/12 22:50:30;;;;;;;7.28;4.88;;;;;;;;;;5097305;28;20055;-62
2023/05/12 22:52:58;;;;;;;8.48;5.45;;;;;;;;;;5096505;28;20047;-60
2023/05/12 22:55:29;;;;;;;7.05;5.30;;;;;;;;;;5112749;27;20138;-62
2023/05/12 22:57:55;;;;;;;9.45;5.38;;;;;;;;;;5093144;28;20022;-65
2023/05/12 23:00:20;;;;;;;10.05;5.78;;;;;;;;;;5096818;28;20019;-65
2023/05/12 23:02:51;;;;;;;7.05;5.13;;;;;;;;;;5095208;28;20051;-61
2023/05/12 23:05:18;;;;;;;11.40;5.60;;;;;;;;;;5098160;27;20030;-62
2023/05/12 23:07:43;;;;;;;7.55;5.20;;;;;;;;;;5094365;27;20602;-62
2023/05/12 23:10:09;;;;;;;8.02;5.07;;;;;;;;;;5093509;28;20028;-61
2023/05/12 23:12:34;;;;;;;8.32;5.28;;;;;;;;;;5099152;27;20076;-62
2023/05/12 23:15:00;;;;;;;7.07;5.05;;;;;;;;;;5099548;27;20023;-64
2023/05/12 23:17:28;;;;;;;6.93;4.20;;;;;;;;;;5098161;27;20038;-59
2023/05/12 23:19:53;;;;;;;7.55;3.53;;;;;;;;;;5099141;28;20004;-63
2023/05/12 23:22:21;;;;;;;4.65;2.63;;;;;;;;;;5095616;28;21238;-63
2023/05/12 23:24:46;;;;;;;5.43;2.40;;;;;;;;;;5099102;27;20024;-62
2023/05/12 23:27:17;;;;;;;4.53;2.22;;;;;;;;;;5098688;28;20023;-60
2023/05/12 23:29:43;;;;;;;5.07;2.45;;;;;;;;;;5096651;27;20039;-60
2023/05/12 23:32:08;;;;;;;6.00;3.73;;;;;;;;;;5097161;28;20119;-60
2023/05/12 23:34:39;;;;;;;6.68;4.40;;;;;;;;;;5094998;28;20273;-60
2023/05/12 23:37:05;;;;;;;6.03;4.00;;;;;;;;;;5090623;27;20683;-64
2023/05/12 23:39:30;;;;;;;6.53;4.22;;;;;;;;;;5097412;28;20465;-61
2023/05/12 23:41:58;;;;;;;7.70;4.43;;;;;;;;;;5093676;28;20044;-63
2023/05/12 23:44:26;;;;;;;5.90;3.70;;;;;;;;;;5096308;28;20032;-61
2023/05/12 23:46:51;;;;;;;6.68;3.88;;;;;;;;;;5109617;27;20019;-61
2023/05/12 23:49:17;;;;;;;7.50;3.47;;;;;;;;;;5096023;28;20139;-61
2023/05/12 23:51:45;;;;;;;8.32;4.38;;;;;;;;;;5094148;28;20044;-62
2023/05/12 23:54:13;;;;;;;5.28;2.88;;;;;;;;;;5094589;28;20108;-60
2023/05/12 23:56:50;;;;;;;4.47;2.10;;;;;;;;;;5096623;28;20020;-61
2023/05/12 23:59:26;;;;;;;5.32;1.98;;;;;;;;;;5098442;28;20749;-61
